• °C
  • Pobieranie danych...
wx


PRINT OUT SECTION, show »

TAF EPLB 230530Z 2306/2315 26006KT CAVOK
BECMG 2306/2309 32012KT
TEMPO 2309/2312 4000 -SHRASN BKN030CB
PROB40 TEMPO 2310/2315 VRB20G35KT 2000 SHGS BKN014
PROB30 2312/2315 TSGS=

TAF EPRA 230602Z 2306/2315 27012KT 9999 SCT030
PROB40 TEMPO 2310/2315 28016G28KT 8000 -SHRA BKN020CB=

TAF EPSY 230530Z 2306/2315 26008KT CAVOK
PROB40 TEMPO 2306/2315 29015G25KT 4000 SHRA BKN020CB=

TAF EPZG 230530Z 2306/2315 24006KT CAVOK
BECMG 2306/2309 30010KT
TEMPO 2306/2315 30015G30KT SCT030CB
PROB40 TEMPO 2306/2315 4000 SHRA BKN020CB
PROB30 TEMPO 2306/2309 BKN009=



IMGW-PIB Sites